Time;durP1;ratioP1;P1;durP2;ratioP2;P2;SDS_P1;SDS_P2;PMS_P1;PMS_P2;Temp;Humidity;BMP_temperature;BMP_pressure;BME280_temperature;BME280_humidity;BME280_pressure;Samples;Min_cycle;Max_cycle;Signal;HPM_P1;HPM_P2
2023/08/23 00:00:03;;;;;;;;;;;;;;;17.42;86.59;101973.06;5068256;28;1634;-77
2023/08/23 00:02:29;;;;;;;;;;;;;;;17.33;86.60;101973.13;5054304;28;1418;-78
2023/08/23 00:04:54;;;;;;;;;;;;;;;17.22;86.90;101966.25;5070362;28;1364;-78
2023/08/23 00:07:19;;;;;;;;;;;;;;;17.13;86.73;101967.06;5062642;28;1622;-77
2023/08/23 00:09:44;;;;;;;;;;;;;;;17.10;87.38;101977.84;5068153;28;1304;-78
2023/08/23 00:12:10;;;;;;;;;;;;;;;17.00;87.23;101983.09;5060914;28;1160;-77
2023/08/23 00:14:35;;;;;;;;;;;;;;;16.94;87.45;101981.03;5059322;28;1523;-77
2023/08/23 00:17:00;;;;;;;;;;;;;;;16.89;87.30;101976.19;5080388;28;1437;-78
2023/08/23 00:19:25;;;;;;;;;;;;;;;16.80;87.49;101970.94;5061317;28;1894;-77
2023/08/23 00:21:50;;;;;;;;;;;;;;;16.74;87.92;101972.31;5055524;28;1457;-78
2023/08/23 00:24:17;;;;;;;;;;;;;;;16.70;88.04;101961.31;5061267;28;1553;-78
2023/08/23 00:26:42;;;;;;;;;;;;;;;16.67;88.15;101971.19;5072847;28;1309;-78
2023/08/23 00:29:07;;;;;;;;;;;;;;;16.65;87.99;101957.41;5073357;28;1327;-77
2023/08/23 00:31:33;;;;;;;;;;;;;;;16.63;88.48;101961.94;5076063;28;1648;-78
2023/08/23 00:33:58;;;;;;;;;;;;;;;16.60;88.56;101964.84;5055597;28;1331;-78
2023/08/23 00:36:23;;;;;;;;;;;;;;;16.53;88.69;101961.13;5066851;28;1484;-78
2023/08/23 00:38:48;;;;;;;;;;;;;;;16.48;88.86;101965.94;5050872;28;1891;-78
2023/08/23 00:41:13;;;;;;;;;;;;;;;16.45;89.28;101967.03;5070293;28;1297;-78
2023/08/23 00:43:39;;;;;;;;;;;;;;;16.43;89.49;101964.53;5071089;28;1224;-78
2023/08/23 00:46:04;;;;;;;;;;;;;;;16.43;89.58;101954.06;5053405;28;1418;-78
2023/08/23 00:48:31;;;;;;;;;;;;;;;16.47;89.58;101952.03;5068321;28;1228;-78
2023/08/23 00:50:57;;;;;;;;;;;;;;;16.50;89.62;101953.53;5070062;28;1333;-78
2023/08/23 00:53:22;;;;;;;;;;;;;;;16.46;89.59;101948.56;5070822;28;1345;-78
2023/08/23 00:55:47;;;;;;;;;;;;;;;16.44;89.64;101945.25;5071986;28;1833;-77
2023/08/23 00:58:13;;;;;;;;;;;;;;;16.40;89.60;101943.03;5068388;28;1918;-77
2023/08/23 01:00:40;;;;;;;;;;;;;;;16.37;89.85;101946.75;5070894;28;1385;-77
2023/08/23 01:03:05;;;;;;;;;;;;;;;16.36;90.07;101952.97;5052397;28;1390;-78
2023/08/23 01:05:35;;;;;;;;;;;;;;;16.36;89.88;101947.72;5053257;28;1659;-77
2023/08/23 01:08:39;;;;;;;;;;;;;;;16.32;90.07;101946.34;5069848;28;1377;-77
2023/08/23 01:11:13;;;;;;;;;;;;;;;16.29;90.05;101941.38;5015871;22;1785;-76
2023/08/23 01:13:58;;;;;;;;;;;;;;;16.24;90.60;101943.56;5048897;28;1221;-78
2023/08/23 01:16:25;;;;;;;;;;;;;;;16.20;90.83;101947.41;5044477;28;1158;-78
2023/08/23 01:18:51;;;;;;;;;;;;;;;16.14;90.70;101943.53;5031503;28;1922;-77
2023/08/23 01:21:22;;;;;;;;;;;;;;;16.13;91.20;101948.91;5054360;28;1296;-77
2023/08/23 01:23:47;;;;;;;;;;;;;;;16.17;90.70;101952.91;5056550;28;1037;-77
2023/08/23 01:26:12;;;;;;;;;;;;;;;16.15;90.61;101954.84;5038806;28;1643;-78
2023/08/23 01:28:37;;;;;;;;;;;;;;;16.12;90.84;101955.13;5041871;28;1247;-77
2023/08/23 01:31:04;;;;;;;;;;;;;;;16.09;91.29;101955.38;5053807;28;1164;-78
2023/08/23 01:33:36;;;;;;;;;;;;;;;16.12;91.08;101936.81;5053925;28;1165;-78
2023/08/23 01:36:10;;;;;;;;;;;;;;;16.11;91.39;101948.19;5030633;28;1598;-77
2023/08/23 01:38:38;;;;;;;;;;;;;;;16.12;91.17;101945.47;5048195;28;1959;-77
2023/08/23 01:41:03;;;;;;;;;;;;;;;16.09;91.28;101942.28;5046475;28;1189;-76
2023/08/23 01:43:28;;;;;;;;;;;;;;;16.04;91.86;101947.09;5032544;28;1247;-77
2023/08/23 01:45:53;;;;;;;;;;;;;;;16.00;91.62;101940.47;5021822;28;1317;-77
2023/08/23 01:48:19;;;;;;;;;;;;;;;16.02;91.72;101938.56;5053197;28;1291;-78
2023/08/23 01:50:44;;;;;;;;;;;;;;;16.06;91.89;101945.19;5044799;28;1476;-77
2023/08/23 01:53:09;;;;;;;;;;;;;;;16.09;91.49;101944.91;5040793;28;1460;-77
2023/08/23 01:55:35;;;;;;;;;;;;;;;16.11;91.59;101937.75;5047174;28;1549;-78
2023/08/23 01:58:00;;;;;;;;;;;;;;;16.13;91.41;101930.59;5050792;28;1945;-77
2023/08/23 02:00:25;;;;;;;;;;;;;;;16.14;91.36;101932.25;5027038;28;1562;-77
2023/08/23 02:02:50;;;;;;;;;;;;;;;16.14;91.73;101934.88;5035177;28;1317;-77
2023/08/23 02:05:15;;;;;;;;;;;;;;;16.15;91.35;101926.03;5051088;28;1373;-77
2023/08/23 02:07:40;;;;;;;;;;;;;;;16.13;91.78;101920.13;5051649;28;1677;-77
2023/08/23 02:10:06;;;;;;;;;;;;;;;16.11;91.60;101927.28;5049062;28;1308;-78
2023/08/23 02:12:31;;;;;;;;;;;;;;;16.03;91.69;101932.34;5051846;28;1200;-78
2023/08/23 02:14:56;;;;;;;;;;;;;;;15.98;91.50;101932.75;5048189;28;1321;-80
2023/08/23 02:17:22;;;;;;;;;;;;;;;15.97;91.63;101928.47;5047093;28;1926;-77
2023/08/23 02:19:47;;;;;;;;;;;;;;;15.98;91.90;101932.75;5030752;28;1372;-77
2023/08/23 02:22:12;;;;;;;;;;;;;;;15.99;91.61;101938.81;5045386;28;1372;-77
2023/08/23 02:24:37;;;;;;;;;;;;;;;15.98;91.59;101921.47;5028630;28;1639;-77
2023/08/23 02:27:02;;;;;;;;;;;;;;;15.98;91.70;101924.91;5031933;28;2146;-77
2023/08/23 02:29:28;;;;;;;;;;;;;;;16.00;91.48;101927.38;5047493;28;1287;-78
2023/08/23 02:31:53;;;;;;;;;;;;;;;16.02;91.67;101917.63;5041878;28;1337;-78
2023/08/23 02:34:18;;;;;;;;;;;;;;;16.03;91.66;101919.28;5051330;28;1331;-78
2023/08/23 02:36:43;;;;;;;;;;;;;;;16.03;91.57;101929.75;5044384;28;1212;-77
2023/08/23 02:39:09;;;;;;;;;;;;;;;16.00;91.67;101916.91;5052245;28;1953;-78
2023/08/23 02:41:34;;;;;;;;;;;;;;;15.98;92.04;101924.91;5021780;28;1226;-77
2023/08/23 02:43:59;;;;;;;;;;;;;;;15.98;91.85;101921.47;5042925;28;1541;-76
2023/08/23 02:46:24;;;;;;;;;;;;;;;15.91;92.07;101921.16;5043554;28;1762;-76
2023/08/23 02:48:50;;;;;;;;;;;;;;;15.85;91.97;101917.28;5055417;28;1239;-77
2023/08/23 02:51:15;;;;;;;;;;;;;;;15.87;92.10;101915.38;5052526;28;1476;-77
2023/08/23 02:53:40;;;;;;;;;;;;;;;15.92;92.04;101928.06;5051395;28;1215;-77
2023/08/23 02:56:06;;;;;;;;;;;;;;;15.96;92.37;101918.16;5029331;28;1396;-76
2023/08/23 02:58:32;;;;;;;;;;;;;;;15.97;91.94;101904.09;5059841;28;1910;-76
2023/08/23 03:00:57;;;;;;;;;;;;;;;15.98;91.84;101911.00;5053369;28;1505;-76
2023/08/23 03:03:22;;;;;;;;;;;;;;;15.99;92.22;101912.63;5049912;28;1149;-77
2023/08/23 03:05:52;;;;;;;;;;;;;;;15.97;91.88;101917.19;5048684;28;1301;-76
2023/08/23 03:08:17;;;;;;;;;;;;;;;15.95;92.28;101908.66;5048759;28;1369;-76
2023/08/23 03:10:42;;;;;;;;;;;;;;;15.95;92.07;101911.28;5032123;28;1361;-77
2023/08/23 03:13:09;;;;;;;;;;;;;;;15.96;92.33;101902.47;5045237;28;1475;-75
2023/08/23 03:15:34;;;;;;;;;;;;;;;15.97;92.31;101909.34;5027061;28;1336;-76
2023/08/23 03:17:59;;;;;;;;;;;;;;;15.98;92.34;101901.34;5029966;28;1982;-77
2023/08/23 03:20:24;;;;;;;;;;;;;;;15.99;91.88;101896.94;5047387;28;1290;-77
2023/08/23 03:22:49;;;;;;;;;;;;;;;15.99;91.93;101896.94;5048281;28;1267;-76
2023/08/23 03:25:15;;;;;;;;;;;;;;;16.00;92.22;101888.13;5027235;28;1133;-77
2023/08/23 03:27:40;;;;;;;;;;;;;;;16.00;91.71;101893.34;5015117;28;1074;-77
2023/08/23 03:30:05;;;;;;;;;;;;;;;15.99;91.84;101886.47;5046624;28;975;-76
2023/08/23 03:32:31;;;;;;;;;;;;;;;15.99;91.68;101897.75;5046176;28;1021;-76
2023/08/23 03:34:56;;;;;;;;;;;;;;;15.98;91.84;101906.59;5041518;28;1386;-77
2023/08/23 03:37:21;;;;;;;;;;;;;;;15.97;91.78;101909.34;5032497;28;1894;-76
2023/08/23 03:39:46;;;;;;;;;;;;;;;15.88;92.33;101909.16;5052741;28;1224;-77
2023/08/23 03:42:12;;;;;;;;;;;;;;;15.77;92.63;101914.53;5053051;28;1220;-77
2023/08/23 03:44:37;;;;;;;;;;;;;;;15.69;92.49;101911.72;5057686;28;1615;-76
2023/08/23 03:47:02;;;;;;;;;;;;;;;15.61;93.34;101903.69;5053239;28;1275;-77
2023/08/23 03:49:27;;;;;;;;;;;;;;;15.59;93.46;101900.34;5056653;28;1079;-76
2023/08/23 03:51:53;;;;;;;;;;;;;;;15.59;93.38;101895.13;5050878;28;1312;-77
2023/08/23 03:54:19;;;;;;;;;;;;;;;15.64;93.74;101903.44;5037150;28;1410;-77
2023/08/23 03:56:44;;;;;;;;;;;;;;;15.64;93.27;101903.44;5047952;28;1479;-76
2023/08/23 03:59:09;;;;;;;;;;;;;;;15.58;94.00;101903.94;5058996;28;1953;-77
2023/08/23 04:01:34;;;;;;;;;;;;;;;15.50;93.63;101906.41;5058178;28;1513;-77
2023/08/23 04:04:00;;;;;;;;;;;;;;;15.50;93.94;101907.22;5051352;28;1418;-76
2023/08/23 04:06:25;;;;;;;;;;;;;;;15.53;93.98;101911.34;5053650;28;1422;-76
2023/08/23 04:08:50;;;;;;;;;;;;;;;15.59;94.04;101916.06;5053655;28;1335;-76
2023/08/23 04:11:15;;;;;;;;;;;;;;;15.62;93.83;101915.81;5033859;28;1405;-76
2023/08/23 04:13:40;;;;;;;;;;;;;;;15.64;93.24;101911.28;5050057;28;1362;-76
2023/08/23 04:16:06;;;;;;;;;;;;;;;15.65;93.02;101910.31;5048166;28;1381;-76
2023/08/23 04:18:31;;;;;;;;;;;;;;;15.65;92.99;101910.31;5050501;28;1894;-75
2023/08/23 04:21:00;;;;;;;;;;;;;;;15.63;92.74;101913.06;5051518;28;1445;-77
2023/08/23 04:23:25;;;;;;;;;;;;;;;15.62;93.19;101921.03;5043770;28;1620;-77
2023/08/23 04:25:50;;;;;;;;;;;;;;;15.61;92.74;101924.63;5049720;28;1336;-76
2023/08/23 04:28:15;;;;;;;;;;;;;;;15.59;93.23;101919.50;5030616;28;1055;-77
2023/08/23 04:30:42;;;;;;;;;;;;;;;15.58;92.88;101909.16;5047571;28;1437;-77
2023/08/23 04:33:08;;;;;;;;;;;;;;;15.57;93.35;101917.97;5043582;28;1221;-77
2023/08/23 04:35:33;;;;;;;;;;;;;;;15.53;93.25;101913.97;5045548;28;1566;-77
2023/08/23 04:37:58;;;;;;;;;;;;;;;15.48;93.21;101923.97;5029543;28;1961;-77
2023/08/23 04:40:23;;;;;;;;;;;;;;;15.40;93.13;101920.22;5052270;28;1513;-75
2023/08/23 04:42:48;;;;;;;;;;;;;;;15.33;93.77;101926.94;5041704;28;1357;-77
2023/08/23 04:45:14;;;;;;;;;;;;;;;15.31;93.51;101928.88;5040666;28;1275;-76
2023/08/23 04:47:39;;;;;;;;;;;;;;;15.32;93.75;101925.28;5045815;28;1306;-77
2023/08/23 04:50:04;;;;;;;;;;;;;;;15.34;94.04;101923.38;5037860;28;1382;-77
2023/08/23 04:52:29;;;;;;;;;;;;;;;15.34;93.87;101919.94;5031536;28;1458;-77
2023/08/23 04:54:55;;;;;;;;;;;;;;;15.30;94.25;101908.91;5007108;28;1607;-77
2023/08/23 04:57:20;;;;;;;;;;;;;;;15.26;94.19;101920.59;5034774;28;1969;-77
2023/08/23 04:59:45;;;;;;;;;;;;;;;15.21;94.23;101911.47;5026369;28;1502;-76
2023/08/23 05:02:10;;;;;;;;;;;;;;;15.17;94.45;101910.88;5024110;28;1233;-77
2023/08/23 05:04:36;;;;;;;;;;;;;;;15.13;94.49;101904.25;5028919;28;1296;-76
2023/08/23 05:07:02;;;;;;;;;;;;;;;15.06;94.45;101910.97;5030388;28;1288;-77
2023/08/23 05:09:28;;;;;;;;;;;;;;;15.09;94.71;101897.66;5022189;28;1649;-76
2023/08/23 05:11:54;;;;;;;;;;;;;;;15.16;94.95;101905.81;5029924;28;1523;-77
2023/08/23 05:14:19;;;;;;;;;;;;;;;15.23;95.13;101904.31;5007684;28;1099;-77
2023/08/23 05:16:44;;;;;;;;;;;;;;;15.30;94.79;101908.06;5019014;28;1466;-76
2023/08/23 05:19:09;;;;;;;;;;;;;;;15.33;94.65;101908.66;5022800;28;1934;-76
2023/08/23 05:21:34;;;;;;;;;;;;;;;15.38;94.82;101909.09;5025732;28;1133;-76
2023/08/23 05:24:00;;;;;;;;;;;;;;;15.40;94.74;101908.94;5029366;28;1189;-76
2023/08/23 05:26:25;;;;;;;;;;;;;;;15.42;94.67;101914.88;5005404;28;1245;-77
2023/08/23 05:28:50;;;;;;;;;;;;;;;15.46;94.43;101910.22;5023917;28;1106;-77
2023/08/23 05:31:15;;;;;;;;;;;;;;;15.48;94.58;101909.13;5023234;28;1139;-77
2023/08/23 05:33:42;;;;;;;;;;;;;;;15.52;94.21;101907.06;5027914;28;1299;-77
2023/08/23 05:36:07;;;;;;;;;;;;;;;15.53;94.37;101901.72;5020165;28;1137;-76
2023/08/23 05:38:32;;;;;;;;;;;;;;;15.53;94.24;101906.13;5004017;28;1977;-76
2023/08/23 05:40:57;;;;;;;;;;;;;;;15.50;94.26;101901.16;5028167;28;1241;-77
2023/08/23 05:43:22;;;;;;;;;;;;;;;15.46;94.30;101899.75;5026264;28;1265;-77
2023/08/23 05:45:50;;;;;;;;;;;;;;;15.43;94.19;101903.47;5026947;28;1445;-76
2023/08/23 05:48:16;;;;;;;;;;;;;;;15.40;94.58;101901.94;5022342;28;1538;-76
2023/08/23 05:50:41;;;;;;;;;;;;;;;15.43;94.89;101900.03;5030583;28;1832;-76
2023/08/23 05:53:09;;;;;;;;;;;;;;;15.48;94.93;101897.84;5030998;28;1271;-76
2023/08/23 05:55:35;;;;;;;;;;;;;;;15.50;94.62;101906.41;5033900;28;1299;-75
2023/08/23 05:58:01;;;;;;;;;;;;;;;15.52;95.04;101909.69;5031614;28;1898;-76
2023/08/23 06:00:26;;;;;;;;;;;;;;;15.54;95.11;101918.22;5018197;28;1603;-75
2023/08/23 06:02:51;;;;;;;;;;;;;;;15.54;94.91;101918.22;5015157;28;1352;-76
2023/08/23 06:05:16;;;;;;;;;;;;;;;15.57;94.99;101917.97;5029395;28;1453;-76
2023/08/23 06:07:41;;;;;;;;;;;;;;;15.59;94.85;101921.28;5032946;28;1269;-76
2023/08/23 06:10:07;;;;;;;;;;;;;;;15.65;95.78;101915.56;5025670;28;1251;-77
2023/08/23 06:12:32;;;;;;;;;;;;;;;15.75;95.39;101916.44;5027123;28;1557;-76
2023/08/23 06:14:57;;;;;;;;;;;;;;;15.83;95.37;101919.22;5032677;28;1263;-77
2023/08/23 06:17:25;;;;;;;;;;;;;;;15.92;95.42;101921.03;5025161;28;1910;-76
2023/08/23 06:19:51;;;;;;;;;;;;;;;16.01;95.30;101915.97;5028133;28;1421;-76
2023/08/23 06:22:17;;;;;;;;;;;;;;;16.10;95.45;101909.91;5027355;28;1076;-76
2023/08/23 06:24:42;;;;;;;;;;;;;;;16.19;95.34;101914.34;5029065;28;1386;-76
2023/08/23 06:27:07;;;;;;;;;;;;;;;16.29;95.40;101915.19;5027768;28;1602;-76
2023/08/23 06:29:32;;;;;;;;;;;;;;;16.37;95.25;101922.38;5015055;28;1253;-76
2023/08/23 06:31:57;;;;;;;;;;;;;;;16.44;95.04;101916.44;5033717;28;1296;-77
2023/08/23 06:34:23;;;;;;;;;;;;;;;16.51;94.75;101921.13;5025588;28;1229;-77
2023/08/23 06:36:48;;;;;;;;;;;;;;;16.60;94.73;101922.94;5013668;28;1328;-77
2023/08/23 06:39:13;;;;;;;;;;;;;;;16.69;94.96;101922.13;5031948;28;1914;-78
2023/08/23 06:41:38;;;;;;;;;;;;;;;16.79;94.76;101925.56;5026798;28;1424;-76
2023/08/23 06:44:03;;;;;;;;;;;;;;;16.89;94.86;101934.25;5027455;28;1358;-77
2023/08/23 06:46:29;;;;;;;;;;;;;;;16.97;94.37;101937.03;5028027;28;1338;-77
2023/08/23 06:48:54;;;;;;;;;;;;;;;17.07;94.12;101936.16;5028040;28;1372;-77
2023/08/23 06:51:20;;;;;;;;;;;;;;;17.15;94.22;101938.94;5023399;28;1197;-77
2023/08/23 06:53:46;;;;;;;;;;;;;;;17.24;94.23;101938.06;5021385;28;1388;-77
2023/08/23 06:56:11;;;;;;;;;;;;;;;17.31;93.79;101944.41;5031699;28;1686;-77
2023/08/23 06:58:37;;;;;;;;;;;;;;;17.40;94.03;101938.31;5030606;28;1894;-77
2023/08/23 07:01:02;;;;;;;;;;;;;;;17.48;93.69;101943.66;5026501;28;1204;-77
2023/08/23 07:03:27;;;;;;;;;;;;;;;17.57;93.75;101936.75;5039352;28;1217;-77
2023/08/23 07:05:53;;;;;;;;;;;;;;;17.68;93.56;101943.59;5034121;28;1679;-76
2023/08/23 07:08:18;;;;;;;;;;;;;;;17.77;93.30;101945.38;5012277;28;1253;-77
2023/08/23 07:10:43;;;;;;;;;;;;;;;17.87;92.82;101946.16;5019187;28;1752;-77
2023/08/23 07:13:08;;;;;;;;;;;;;;;17.98;92.38;101948.59;5031870;28;1687;-76
2023/08/23 07:15:35;;;;;;;;;;;;;;;18.10;92.33;101951.03;5031361;28;1323;-77
2023/08/23 07:18:01;;;;;;;;;;;;;;;18.22;92.22;101952.47;5034627;28;1965;-77
2023/08/23 07:20:26;;;;;;;;;;;;;;;18.29;91.18;101945.66;5032460;28;1606;-76
2023/08/23 07:22:51;;;;;;;;;;;;;;;18.32;91.86;101953.25;5034239;28;1499;-77
2023/08/23 07:25:16;;;;;;;;;;;;;;;18.44;91.48;101949.44;5029761;28;1264;-76
2023/08/23 07:27:41;;;;;;;;;;;;;;;18.54;90.92;101955.44;5021337;28;1359;-77
2023/08/23 07:30:07;;;;;;;;;;;;;;;18.64;90.62;101959.78;5020239;28;1322;-77
2023/08/23 07:32:32;;;;;;;;;;;;;;;18.73;90.25;101964.19;5020821;28;1308;-77
2023/08/23 07:35:00;;;;;;;;;;;;;;;18.83;89.70;101959.69;5024781;28;1165;-77
2023/08/23 07:37:25;;;;;;;;;;;;;;;18.87;89.36;101970.69;5030182;28;1917;-77
2023/08/23 07:39:50;;;;;;;;;;;;;;;18.98;89.13;101963.44;5030720;28;1224;-77
2023/08/23 07:42:15;;;;;;;;;;;;;;;19.08;88.95;101974.66;5036759;28;1282;-77
2023/08/23 07:44:41;;;;;;;;;;;;;;;19.21;88.72;101974.28;5033598;28;966;-77
2023/08/23 07:47:06;;;;;;;;;;;;;;;19.30;88.08;101975.16;5027169;28;1238;-77
2023/08/23 07:49:31;;;;;;;;;;;;;;;19.39;88.19;101970.78;5031823;28;1222;-77
2023/08/23 07:51:57;;;;;;;;;;;;;;;19.43;87.53;101978.19;5026590;28;1174;-76
2023/08/23 07:54:22;;;;;;;;;;;;;;;19.46;87.44;101970.00;5028967;28;1197;-77
2023/08/23 07:56:47;;;;;;;;;;;;;;;19.54;86.64;101975.28;5016314;28;1216;-76
2023/08/23 07:59:12;;;;;;;;;;;;;;;19.55;86.99;101966.41;5015246;28;1902;-77
2023/08/23 08:01:38;;;;;;;;;;;;;;;19.61;87.28;101965.84;5021123;28;1255;-77
2023/08/23 08:04:03;;;;;;;;;;;;;;;19.75;86.85;101971.50;5033189;28;1076;-77
2023/08/23 08:06:28;;;;;;;;;;;;;;;19.94;86.35;101960.72;5039484;28;1260;-77
2023/08/23 08:08:53;;;;;;;;;;;;;;;20.05;85.60;101968.31;5009913;28;1281;-76
2023/08/23 08:11:18;;;;;;;;;;;;;;;20.11;84.94;101969.50;5028864;28;1248;-77
2023/08/23 08:13:44;;;;;;;;;;;;;;;20.20;84.65;101975.63;5035952;28;1565;-78
2023/08/23 08:16:10;;;;;;;;;;;;;;;20.30;84.75;101971.00;5034604;28;1439;-77
2023/08/23 08:18:35;;;;;;;;;;;;;;;20.41;84.22;101973.34;5033394;28;1968;-77
2023/08/23 08:21:00;;;;;;;;;;;;;;;20.54;83.64;101976.38;5035846;28;1148;-78
2023/08/23 08:23:25;;;;;;;;;;;;;;;20.64;83.63;101982.34;5017294;28;1356;-77
2023/08/23 08:25:51;;;;;;;;;;;;;;;20.72;83.38;101973.59;5017243;28;1326;-77
2023/08/23 08:28:16;;;;;;;;;;;;;;;20.78;82.76;101980.84;5032292;28;1348;-77
2023/08/23 08:30:41;;;;;;;;;;;;;;;20.81;82.02;101979.69;5016455;28;1577;-77
2023/08/23 08:33:06;;;;;;;;;;;;;;;20.82;81.82;101989.28;5025187;28;1328;-76
2023/08/23 08:35:31;;;;;;;;;;;;;;;20.86;81.54;101977.38;5035781;28;1398;-77
2023/08/23 08:37:57;;;;;;;;;;;;;;;20.98;81.05;101970.78;5036813;28;1890;-77
2023/08/23 08:40:22;;;;;;;;;;;;;;;21.14;79.64;101967.31;5029723;28;1514;-77
2023/08/23 08:42:47;;;;;;;;;;;;;;;21.15;79.23;101971.59;5014757;28;1316;-78
2023/08/23 08:45:12;;;;;;;;;;;;;;;21.26;79.45;101973.09;5027080;28;1319;-77
2023/08/23 08:47:38;;;;;;;;;;;;;;;21.36;78.82;101973.75;5024303;28;1190;-78
2023/08/23 08:50:03;;;;;;;;;;;;;;;21.44;78.27;101971.91;5030260;28;1149;-78
2023/08/23 08:52:30;;;;;;;;;;;;;;;21.56;77.18;101979.47;5030911;28;1051;-77
2023/08/23 08:54:57;;;;;;;;;;;;;;;21.69;77.03;101975.31;5013235;28;1454;-78
2023/08/23 08:57:23;;;;;;;;;;;;;;;21.82;76.75;101977.41;5021535;28;1272;-77
2023/08/23 08:59:48;;;;;;;;;;;;;;;21.84;75.71;101974.59;5001720;28;1898;-77
2023/08/23 09:02:15;;;;;;;;;;;;;;;21.86;75.81;101983.19;5028688;28;1265;-77
2023/08/23 09:04:43;;;;;;;;;;;;;;;21.88;75.53;101983.84;5027894;28;1072;-77
2023/08/23 09:07:08;;;;;;;;;;;;;;;21.91;75.12;101988.78;5027740;28;1261;-78
2023/08/23 09:09:34;;;;;;;;;;;;;;;21.94;75.05;101983.97;5031040;28;1302;-78
2023/08/23 09:11:59;;;;;;;;;;;;;;;22.00;74.32;101971.91;5028448;28;1526;-78
2023/08/23 09:14:27;;;;;;;;;;;;;;;22.15;72.51;101972.03;5027799;28;1185;-77
2023/08/23 09:16:52;;;;;;;;;;;;;;;22.24;72.87;101961.22;5011807;28;1213;-78
2023/08/23 09:19:17;;;;;;;;;;;;;;;22.33;72.16;101961.19;5026844;28;1902;-78
2023/08/23 09:21:50;;;;;;;;;;;;;;;22.40;71.63;101962.94;5033829;28;1153;-77
2023/08/23 09:24:16;;;;;;;;;;;;;;;22.41;71.99;101964.59;5034134;28;1105;-77
2023/08/23 09:26:41;;;;;;;;;;;;;;;22.47;72.13;101968.34;5025664;28;1558;-77
2023/08/23 09:29:06;;;;;;;;;;;;;;;22.53;71.07;101972.94;5033477;28;1079;-77
2023/08/23 09:31:32;;;;;;;;;;;;;;;22.55;71.32;101973.59;5032567;28;1000;-77
2023/08/23 09:33:58;;;;;;;;;;;;;;;22.73;71.21;101974.13;5032122;28;1229;-78
2023/08/23 09:36:30;;;;;;;;;;;;;;;22.83;70.47;101973.88;5023101;28;1209;-76
2023/08/23 09:38:56;;;;;;;;;;;;;;;22.89;70.22;101977.69;5027907;28;1922;-78
2023/08/23 09:41:22;;;;;;;;;;;;;;;23.00;69.73;101980.72;5024915;28;1452;-77
2023/08/23 09:43:51;;;;;;;;;;;;;;;23.13;68.95;101980.09;5019579;28;1224;-76
2023/08/23 09:46:16;;;;;;;;;;;;;;;23.13;68.67;101980.09;5024644;28;1476;-77
2023/08/23 09:48:42;;;;;;;;;;;;;;;23.25;68.40;101981.28;5009655;28;1228;-77
2023/08/23 09:51:08;;;;;;;;;;;;;;;23.37;67.42;101970.25;5027707;28;1238;-77
2023/08/23 09:53:34;;;;;;;;;;;;;;;23.44;67.51;101971.19;5029048;28;986;-77
2023/08/23 09:56:01;;;;;;;;;;;;;;;23.46;67.47;101964.72;5029362;28;1201;-77
2023/08/23 09:58:26;;;;;;;;;;;;;;;23.52;66.85;101968.44;5022147;28;1987;-77
2023/08/23 10:00:51;;;;;;;;;;;;;;;23.52;65.35;101960.50;5007349;28;1288;-78
2023/08/23 10:03:18;;;;;;;;;;;;;;;23.53;65.09;101962.16;5024950;28;1107;-77
2023/08/23 10:05:43;;;;;;;;;;;;;;;23.48;65.77;101968.00;4998038;28;1283;-77
2023/08/23 10:08:09;;;;;;;;;;;;;;;23.66;65.36;101974.78;5024951;28;1220;-77
2023/08/23 10:10:36;;;;;;;;;;;;;;;23.79;64.83;101975.75;5024930;28;1277;-79
2023/08/23 10:13:06;;;;;;;;;;;;;;;23.82;64.55;101975.41;5020524;28;1209;-77
2023/08/23 10:15:32;;;;;;;;;;;;;;;23.82;62.82;101975.41;5029668;28;1339;-78
2023/08/23 10:18:01;;;;;;;;;;;;;;;23.77;61.06;101961.88;5028306;28;1953;-78
2023/08/23 10:20:27;;;;;;;;;;;;;;;23.81;62.05;101963.16;5015282;28;1442;-78
2023/08/23 10:22:53;;;;;;;;;;;;;;;23.88;61.06;101973.03;5021518;28;1420;-78
2023/08/23 10:25:20;;;;;;;;;;;;;;;24.10;61.40;101972.06;5033005;28;1346;-79
2023/08/23 10:27:46;;;;;;;;;;;;;;;24.24;60.99;101967.72;5035563;28;1335;-79
2023/08/23 10:30:32;;;;;;;;;;;;;;;24.38;60.35;101968.75;5035652;28;1272;-78
2023/08/23 10:33:14;;;;;;;;;;;;;;;24.36;59.76;101964.41;5011703;28;1252;-78
2023/08/23 10:35:40;;;;;;;;;;;;;;;24.38;58.17;101958.13;5021069;28;1359;-77
2023/08/23 10:38:05;;;;;;;;;;;;;;;24.44;57.79;101958.19;5033423;28;1882;-76
2023/08/23 10:40:31;;;;;;;;;;;;;;;24.48;58.87;101963.91;5010185;28;1120;-77
2023/08/23 10:42:57;;;;;;;;;;;;;;;24.46;57.17;101960.66;5026716;28;1503;-79
2023/08/23 10:45:22;;;;;;;;;;;;;;;24.49;56.82;101962.94;5027199;28;1449;-77
2023/08/23 10:47:49;;;;;;;;;;;;;;;24.48;56.12;101958.63;5024032;28;1462;-77
2023/08/23 10:50:14;;;;;;;;;;;;;;;24.56;56.48;101961.16;5028522;28;1478;-75
2023/08/23 10:52:40;;;;;;;;;;;;;;;24.56;55.93;101961.16;5011943;28;1342;-76
2023/08/23 10:55:05;;;;;;;;;;;;;;;24.53;54.57;101962.34;5030633;28;1426;-77
2023/08/23 10:57:31;;;;;;;;;;;;;;;24.67;55.26;101946.56;5024400;28;1622;-78
2023/08/23 10:59:56;;;;;;;;;;;;;;;24.86;55.00;101952.03;5023786;28;1894;-79
2023/08/23 11:02:21;;;;;;;;;;;;;;;25.00;55.45;101942.31;5033496;28;1140;-77
2023/08/23 11:04:47;;;;;;;;;;;;;;;25.11;55.39;101943.66;5019458;28;1398;-80
2023/08/23 11:07:14;;;;;;;;;;;;;;;25.21;55.50;101938.00;5026210;28;1309;-77
2023/08/23 11:09:40;;;;;;;;;;;;;;;25.21;51.26;101938.00;5027017;28;1211;-80
2023/08/23 11:12:05;;;;;;;;;;;;;;;25.15;54.07;101934.28;5003797;28;1172;-80
2023/08/23 11:14:30;;;;;;;;;;;;;;;25.24;53.74;101942.94;5029866;28;1354;-80
2023/08/23 11:16:56;;;;;;;;;;;;;;;25.31;53.78;101928.66;5016465;28;1421;-79
2023/08/23 11:19:21;;;;;;;;;;;;;;;25.38;52.14;101926.88;5007358;28;1902;-78
2023/08/23 11:21:46;;;;;;;;;;;;;;;25.53;50.75;101925.94;5004471;28;2363;-79
2023/08/23 11:24:11;;;;;;;;;;;;;;;25.22;51.61;101919.22;5029692;28;1802;-78
2023/08/23 11:26:37;;;;;;;;;;;;;;;25.25;51.95;101913.53;5013126;28;1455;-78
2023/08/23 11:29:03;;;;;;;;;;;;;;;25.31;51.37;101911.91;5012538;28;1375;-78
2023/08/23 11:31:29;;;;;;;;;;;;;;;25.25;52.45;101913.53;5030203;28;1229;-78
2023/08/23 11:33:55;;;;;;;;;;;;;;;25.38;51.23;101913.59;5033537;28;1257;-77
2023/08/23 11:36:23;;;;;;;;;;;;;;;25.35;49.57;101916.66;5030619;28;1487;-78
2023/08/23 11:38:49;;;;;;;;;;;;;;;25.33;51.50;101921.31;5031789;28;1959;-78
2023/08/23 11:41:14;;;;;;;;;;;;;;;25.42;51.21;101922.81;5029036;28;1213;-79
2023/08/23 11:43:46;;;;;;;;;;;;;;;25.38;51.71;101923.38;5024759;28;1209;-79
2023/08/23 11:46:11;;;;;;;;;;;;;;;25.47;53.20;101921.41;5025406;28;1276;-80
2023/08/23 11:48:37;;;;;;;;;;;;;;;25.63;51.32;101926.38;5029318;28;1189;-80
2023/08/23 11:51:03;;;;;;;;;;;;;;;25.56;51.16;101925.53;5013170;28;1300;-80
2023/08/23 11:53:28;;;;;;;;;;;;;;;25.62;51.51;101927.38;5032575;28;1279;-81
2023/08/23 11:55:56;;;;;;;;;;;;;;;25.68;51.43;101930.06;5020365;28;1289;-80
2023/08/23 11:58:22;;;;;;;;;;;;;;;25.78;51.13;101923.59;5019785;28;1961;-79
2023/08/23 12:00:48;;;;;;;;;;;;;;;25.78;50.74;101927.06;5030767;28;1213;-79
2023/08/23 12:03:14;;;;;;;;;;;;;;;25.79;50.79;101919.91;5025819;28;1253;-80
2023/08/23 12:05:39;;;;;;;;;;;;;;;25.84;51.35;101918.31;5032834;28;1269;-79
2023/08/23 12:08:04;;;;;;;;;;;;;;;25.95;51.32;101925.69;5026729;28;1388;-81
2023/08/23 12:10:30;;;;;;;;;;;;;;;25.90;50.00;101917.50;5031641;28;1470;-80
2023/08/23 12:12:55;;;;;;;;;;;;;;;25.77;50.05;101921.97;5031936;28;1228;-80
2023/08/23 12:15:20;;;;;;;;;;;;;;;25.93;49.66;101925.09;5029566;28;1267;-80
2023/08/23 12:17:46;;;;;;;;;;;;;;;25.95;49.84;101915.06;5013242;28;1957;-79
2023/08/23 12:20:11;;;;;;;;;;;;;;;26.05;50.15;101913.88;5031544;28;1331;-80
2023/08/23 12:22:37;;;;;;;;;;;;;;;26.15;49.70;101924.91;5028016;28;1257;-81
2023/08/23 12:25:05;;;;;;;;;;;;;;;26.23;49.81;101932.72;5019171;28;1415;-80
2023/08/23 12:27:31;;;;;;;;;;;;;;;26.35;49.95;101923.13;5024851;28;929;-79
2023/08/23 12:29:56;;;;;;;;;;;;;;;26.42;49.33;101925.81;5030938;28;1304;-78
2023/08/23 12:32:21;;;;;;;;;;;;;;;26.43;49.88;101922.94;5016416;28;1407;-80
2023/08/23 12:34:47;;;;;;;;;;;;;;;26.46;49.77;101930.53;5028875;28;1349;-80
2023/08/23 12:37:12;;;;;;;;;;;;;;;26.59;49.84;101920.91;5022933;28;1343;-80
2023/08/23 12:39:37;;;;;;;;;;;;;;;26.73;49.66;101917.25;5032303;28;1959;-80